sensor_id;sensor_type;location;lat;lon;timestamp;pressure;altitude;pressure_sealevel;temperature;humidity
24390;BME280;12510;56.468;-3.004;2022-08-02T00:02:01;99555.88;;;20.00;100.00
24390;BME280;12510;56.468;-3.004;2022-08-02T00:04:30;99554.66;;;20.15;100.00
24390;BME280;12510;56.468;-3.004;2022-08-02T00:06:57;99543.84;;;20.09;100.00
24390;BME280;12510;56.468;-3.004;2022-08-02T00:09:23;99537.88;;;20.07;100.00
24390;BME280;12510;56.468;-3.004;2022-08-02T00:11:49;99542.19;;;20.08;100.00
24390;BME280;12510;56.468;-3.004;2022-08-02T00:14:16;99537.41;;;20.10;100.00
24390;BME280;12510;56.468;-3.004;2022-08-02T00:16:42;99531.78;;;20.19;100.00
24390;BME280;12510;56.468;-3.004;2022-08-02T00:19:09;99532.72;;;20.24;100.00
24390;BME280;12510;56.468;-3.004;2022-08-02T00:21:35;99534.38;;;20.25;100.00
24390;BME280;12510;56.468;-3.004;2022-08-02T00:24:02;99523.13;;;20.35;100.00
24390;BME280;12510;56.468;-3.004;2022-08-02T00:26:29;99522.19;;;20.30;100.00
24390;BME280;12510;56.468;-3.004;2022-08-02T00:28:55;99525.41;;;20.32;100.00
24390;BME280;12510;56.468;-3.004;2022-08-02T00:31:22;99516.41;;;20.45;100.00
24390;BME280;12510;56.468;-3.004;2022-08-02T00:33:48;99510.69;;;20.41;100.00
24390;BME280;12510;56.468;-3.004;2022-08-02T00:36:15;99504.50;;;20.29;100.00
24390;BME280;12510;56.468;-3.004;2022-08-02T00:38:42;99511.66;;;20.16;100.00
24390;BME280;12510;56.468;-3.004;2022-08-02T00:41:14;99505.22;;;20.36;100.00
24390;BME280;12510;56.468;-3.004;2022-08-02T00:43:42;99506.06;;;20.48;100.00
24390;BME280;12510;56.468;-3.004;2022-08-02T00:46:09;99495.16;;;20.50;100.00
24390;BME280;12510;56.468;-3.004;2022-08-02T00:48:35;99484.31;;;20.45;100.00
24390;BME280;12510;56.468;-3.004;2022-08-02T00:51:02;99483.97;;;20.53;100.00
24390;BME280;12510;56.468;-3.004;2022-08-02T00:53:29;99485.00;;;20.52;100.00
24390;BME280;12510;56.468;-3.004;2022-08-02T00:55:55;99487.81;;;20.57;100.00
24390;BME280;12510;56.468;-3.004;2022-08-02T00:58:22;99480.16;;;20.60;100.00
24390;BME280;12510;56.468;-3.004;2022-08-02T01:00:49;99475.16;;;20.52;100.00
24390;BME280;12510;56.468;-3.004;2022-08-02T01:03:21;99475.47;;;20.56;100.00
24390;BME280;12510;56.468;-3.004;2022-08-02T01:05:48;99470.59;;;20.53;100.00
24390;BME280;12510;56.468;-3.004;2022-08-02T01:08:15;99470.13;;;20.56;100.00
24390;BME280;12510;56.468;-3.004;2022-08-02T01:10:42;99460.41;;;20.62;100.00
24390;BME280;12510;56.468;-3.004;2022-08-02T01:13:08;99451.91;;;20.65;100.00
24390;BME280;12510;56.468;-3.004;2022-08-02T01:15:42;99440.84;;;20.61;100.00
24390;BME280;12510;56.468;-3.004;2022-08-02T01:18:37;99428.84;;;20.40;100.00
24390;BME280;12510;56.468;-3.004;2022-08-02T01:24:14;99402.72;;;20.54;100.00
24390;BME280;12510;56.468;-3.004;2022-08-02T01:27:01;99391.31;;;20.35;100.00
24390;BME280;12510;56.468;-3.004;2022-08-02T01:29:39;99376.44;;;20.39;100.00
24390;BME280;12510;56.468;-3.004;2022-08-02T01:32:11;99367.69;;;20.32;100.00
24390;BME280;12510;56.468;-3.004;2022-08-02T01:34:41;99366.19;;;20.36;100.00
24390;BME280;12510;56.468;-3.004;2022-08-02T01:37:15;99364.22;;;20.43;100.00
24390;BME280;12510;56.468;-3.004;2022-08-02T01:39:43;99346.66;;;20.35;100.00
24390;BME280;12510;56.468;-3.004;2022-08-02T01:42:12;99340.72;;;20.45;100.00
24390;BME280;12510;56.468;-3.004;2022-08-02T01:44:41;99358.41;;;20.58;100.00
24390;BME280;12510;56.468;-3.004;2022-08-02T01:47:14;99361.09;;;20.58;100.00
24390;BME280;12510;56.468;-3.004;2022-08-02T01:49:45;99353.16;;;20.39;100.00
24390;BME280;12510;56.468;-3.004;2022-08-02T01:52:14;99339.34;;;20.54;100.00
24390;BME280;12510;56.468;-3.004;2022-08-02T01:55:00;99337.13;;;20.63;100.00
24390;BME280;12510;56.468;-3.004;2022-08-02T01:57:33;99332.09;;;20.67;100.00
24390;BME280;12510;56.468;-3.004;2022-08-02T02:00:00;99329.44;;;20.67;100.00
24390;BME280;12510;56.468;-3.004;2022-08-02T02:02:30;99332.94;;;20.67;100.00
24390;BME280;12510;56.468;-3.004;2022-08-02T02:04:58;99325.72;;;20.68;100.00
24390;BME280;12510;56.468;-3.004;2022-08-02T02:07:26;99324.00;;;20.62;100.00
24390;BME280;12510;56.468;-3.004;2022-08-02T02:09:54;99321.41;;;20.79;100.00
24390;BME280;12510;56.468;-3.004;2022-08-02T02:12:23;99311.69;;;20.72;100.00
24390;BME280;12510;56.468;-3.004;2022-08-02T02:14:50;99310.72;;;20.79;100.00
24390;BME280;12510;56.468;-3.004;2022-08-02T02:17:18;99305.59;;;20.65;100.00
24390;BME280;12510;56.468;-3.004;2022-08-02T02:19:46;99291.41;;;20.65;100.00
24390;BME280;12510;56.468;-3.004;2022-08-02T02:22:13;99290.16;;;20.79;100.00
24390;BME280;12510;56.468;-3.004;2022-08-02T02:24:39;99288.63;;;20.83;100.00
24390;BME280;12510;56.468;-3.004;2022-08-02T02:27:07;99286.63;;;20.79;100.00
24390;BME280;12510;56.468;-3.004;2022-08-02T02:29:40;99279.00;;;20.70;100.00
24390;BME280;12510;56.468;-3.004;2022-08-02T02:32:09;99263.28;;;20.74;100.00
24390;BME280;12510;56.468;-3.004;2022-08-02T02:34:41;99274.00;;;20.50;100.00
24390;BME280;12510;56.468;-3.004;2022-08-02T02:37:13;99279.97;;;20.93;100.00
24390;BME280;12510;56.468;-3.004;2022-08-02T02:39:42;99279.13;;;21.04;100.00
24390;BME280;12510;56.468;-3.004;2022-08-02T02:42:13;99278.84;;;21.18;100.00
24390;BME280;12510;56.468;-3.004;2022-08-02T02:44:40;99279.34;;;20.74;100.00
24390;BME280;12510;56.468;-3.004;2022-08-02T02:47:09;99280.72;;;20.65;100.00
24390;BME280;12510;56.468;-3.004;2022-08-02T02:49:36;99283.53;;;20.70;100.00
24390;BME280;12510;56.468;-3.004;2022-08-02T02:52:05;99271.50;;;20.84;100.00
24390;BME280;12510;56.468;-3.004;2022-08-02T02:54:32;99270.94;;;20.82;100.00
24390;BME280;12510;56.468;-3.004;2022-08-02T02:57:00;99270.03;;;20.76;100.00
24390;BME280;12510;56.468;-3.004;2022-08-02T02:59:27;99266.44;;;20.59;100.00
24390;BME280;12510;56.468;-3.004;2022-08-02T03:01:54;99259.16;;;20.95;100.00
24390;BME280;12510;56.468;-3.004;2022-08-02T03:04:21;99261.91;;;21.00;100.00
24390;BME280;12510;56.468;-3.004;2022-08-02T03:06:49;99259.97;;;20.96;100.00
24390;BME280;12510;56.468;-3.004;2022-08-02T03:09:15;99265.88;;;20.98;100.00
24390;BME280;12510;56.468;-3.004;2022-08-02T03:11:42;99267.78;;;20.85;100.00
24390;BME280;12510;56.468;-3.004;2022-08-02T03:14:09;99271.72;;;20.95;100.00
24390;BME280;12510;56.468;-3.004;2022-08-02T03:16:45;99265.47;;;20.77;100.00
24390;BME280;12510;56.468;-3.004;2022-08-02T03:19:12;99267.97;;;20.55;100.00
24390;BME280;12510;56.468;-3.004;2022-08-02T03:21:38;99271.44;;;20.55;100.00
24390;BME280;12510;56.468;-3.004;2022-08-02T03:24:06;99256.34;;;20.37;100.00
24390;BME280;12510;56.468;-3.004;2022-08-02T03:26:33;99262.00;;;20.53;100.00
24390;BME280;12510;56.468;-3.004;2022-08-02T03:29:00;99259.19;;;20.83;100.00
24390;BME280;12510;56.468;-3.004;2022-08-02T03:31:27;99262.47;;;20.73;100.00
24390;BME280;12510;56.468;-3.004;2022-08-02T03:33:54;99259.34;;;21.05;100.00
24390;BME280;12510;56.468;-3.004;2022-08-02T03:36:23;99254.38;;;21.26;100.00
24390;BME280;12510;56.468;-3.004;2022-08-02T03:38:51;99254.66;;;20.60;100.00
24390;BME280;12510;56.468;-3.004;2022-08-02T03:41:19;99245.50;;;21.08;100.00
24390;BME280;12510;56.468;-3.004;2022-08-02T03:43:48;99244.56;;;21.03;100.00
24390;BME280;12510;56.468;-3.004;2022-08-02T03:46:17;99246.88;;;21.11;100.00
24390;BME280;12510;56.468;-3.004;2022-08-02T03:48:44;99238.50;;;20.79;100.00
24390;BME280;12510;56.468;-3.004;2022-08-02T03:51:11;99237.09;;;20.64;100.00
24390;BME280;12510;56.468;-3.004;2022-08-02T03:53:38;99230.84;;;20.70;100.00
24390;BME280;12510;56.468;-3.004;2022-08-02T03:56:05;99226.59;;;20.86;100.00
24390;BME280;12510;56.468;-3.004;2022-08-02T03:58:33;99235.72;;;20.62;100.00
24390;BME280;12510;56.468;-3.004;2022-08-02T04:00:59;99226.66;;;21.03;100.00
24390;BME280;12510;56.468;-3.004;2022-08-02T04:03:26;99216.38;;;21.12;100.00
24390;BME280;12510;56.468;-3.004;2022-08-02T04:05:52;99217.44;;;21.28;100.00
24390;BME280;12510;56.468;-3.004;2022-08-02T04:08:19;99225.78;;;21.15;100.00
24390;BME280;12510;56.468;-3.004;2022-08-02T04:10:46;99218.88;;;21.19;100.00
24390;BME280;12510;56.468;-3.004;2022-08-02T04:13:36;99216.88;;;21.26;100.00
24390;BME280;12510;56.468;-3.004;2022-08-02T04:16:11;99222.34;;;21.48;100.00
24390;BME280;12510;56.468;-3.004;2022-08-02T04:18:44;99221.00;;;21.34;100.00
24390;BME280;12510;56.468;-3.004;2022-08-02T04:21:14;99206.59;;;20.89;100.00
24390;BME280;12510;56.468;-3.004;2022-08-02T04:23:42;99206.97;;;21.26;100.00
24390;BME280;12510;56.468;-3.004;2022-08-02T04:26:10;99190.75;;;21.33;100.00
24390;BME280;12510;56.468;-3.004;2022-08-02T04:28:39;99194.56;;;21.20;100.00
24390;BME280;12510;56.468;-3.004;2022-08-02T04:31:06;99199.75;;;21.27;100.00
24390;BME280;12510;56.468;-3.004;2022-08-02T04:33:33;99210.94;;;21.24;100.00
24390;BME280;12510;56.468;-3.004;2022-08-02T04:36:00;99219.03;;;20.95;100.00
24390;BME280;12510;56.468;-3.004;2022-08-02T04:38:27;99208.59;;;20.82;100.00
24390;BME280;12510;56.468;-3.004;2022-08-02T04:40:54;99209.75;;;21.32;100.00
24390;BME280;12510;56.468;-3.004;2022-08-02T04:43:21;99212.00;;;21.23;100.00
24390;BME280;12510;56.468;-3.004;2022-08-02T04:45:52;99210.84;;;21.02;100.00
24390;BME280;12510;56.468;-3.004;2022-08-02T04:48:20;99205.97;;;21.45;100.00
24390;BME280;12510;56.468;-3.004;2022-08-02T04:50:47;99207.53;;;21.12;100.00
24390;BME280;12510;56.468;-3.004;2022-08-02T04:53:13;99216.69;;;21.16;100.00
24390;BME280;12510;56.468;-3.004;2022-08-02T04:55:40;99211.59;;;21.14;100.00
24390;BME280;12510;56.468;-3.004;2022-08-02T04:58:06;99200.19;;;20.90;100.00
24390;BME280;12510;56.468;-3.004;2022-08-02T05:00:33;99205.84;;;21.22;100.00
24390;BME280;12510;56.468;-3.004;2022-08-02T05:03:00;99205.75;;;21.17;100.00
24390;BME280;12510;56.468;-3.004;2022-08-02T05:05:27;99221.44;;;21.42;100.00
24390;BME280;12510;56.468;-3.004;2022-08-02T05:07:54;99215.44;;;20.77;100.00
24390;BME280;12510;56.468;-3.004;2022-08-02T05:10:21;99222.69;;;20.65;100.00
24390;BME280;12510;56.468;-3.004;2022-08-02T05:12:48;99211.84;;;20.84;100.00
24390;BME280;12510;56.468;-3.004;2022-08-02T05:15:14;99205.53;;;20.90;100.00
24390;BME280;12510;56.468;-3.004;2022-08-02T05:17:44;99199.59;;;20.88;100.00
24390;BME280;12510;56.468;-3.004;2022-08-02T05:20:11;99196.53;;;20.96;100.00
24390;BME280;12510;56.468;-3.004;2022-08-02T05:22:41;99195.59;;;21.02;100.00
24390;BME280;12510;56.468;-3.004;2022-08-02T05:25:08;99185.97;;;20.72;100.00
24390;BME280;12510;56.468;-3.004;2022-08-02T05:27:35;99188.00;;;20.82;100.00
24390;BME280;12510;56.468;-3.004;2022-08-02T05:30:02;99184.09;;;21.02;100.00
24390;BME280;12510;56.468;-3.004;2022-08-02T05:32:29;99197.31;;;21.08;100.00
24390;BME280;12510;56.468;-3.004;2022-08-02T05:34:55;99194.09;;;20.95;100.00
24390;BME280;12510;56.468;-3.004;2022-08-02T05:37:21;99204.75;;;20.77;100.00
24390;BME280;12510;56.468;-3.004;2022-08-02T05:39:48;99199.09;;;21.20;100.00
24390;BME280;12510;56.468;-3.004;2022-08-02T05:42:14;99192.28;;;21.12;100.00
24390;BME280;12510;56.468;-3.004;2022-08-02T05:44:41;99197.84;;;21.39;100.00
24390;BME280;12510;56.468;-3.004;2022-08-02T05:47:07;99199.41;;;21.69;100.00
24390;BME280;12510;56.468;-3.004;2022-08-02T05:49:34;99197.34;;;21.42;100.00
24390;BME280;12510;56.468;-3.004;2022-08-02T05:52:15;99186.81;;;21.70;100.00
24390;BME280;12510;56.468;-3.004;2022-08-02T05:57:24;99185.22;;;21.06;100.00
24390;BME280;12510;56.468;-3.004;2022-08-02T06:00:07;99181.03;;;20.81;100.00
24390;BME280;12510;56.468;-3.004;2022-08-02T06:05:20;99185.31;;;20.82;100.00
24390;BME280;12510;56.468;-3.004;2022-08-02T06:07:48;99171.22;;;20.87;100.00
24390;BME280;12510;56.468;-3.004;2022-08-02T06:10:19;99171.81;;;20.89;100.00
24390;BME280;12510;56.468;-3.004;2022-08-02T06:13:09;99181.78;;;21.39;100.00
24390;BME280;12510;56.468;-3.004;2022-08-02T06:15:37;99183.88;;;21.37;100.00
24390;BME280;12510;56.468;-3.004;2022-08-02T06:18:06;99184.69;;;21.21;100.00
24390;BME280;12510;56.468;-3.004;2022-08-02T06:20:34;99190.91;;;21.26;100.00
24390;BME280;12510;56.468;-3.004;2022-08-02T06:23:07;99179.72;;;21.30;100.00
24390;BME280;12510;56.468;-3.004;2022-08-02T06:25:35;99185.66;;;20.86;100.00
24390;BME280;12510;56.468;-3.004;2022-08-02T06:28:04;99194.00;;;21.18;100.00
24390;BME280;12510;56.468;-3.004;2022-08-02T06:30:32;99189.94;;;21.16;100.00
24390;BME280;12510;56.468;-3.004;2022-08-02T06:32:58;99180.56;;;21.01;100.00
24390;BME280;12510;56.468;-3.004;2022-08-02T06:35:32;99187.84;;;21.35;100.00
24390;BME280;12510;56.468;-3.004;2022-08-02T06:38:01;99192.16;;;21.53;100.00
24390;BME280;12510;56.468;-3.004;2022-08-02T06:43:27;99204.00;;;20.94;100.00
24390;BME280;12510;56.468;-3.004;2022-08-02T06:45:55;99196.56;;;21.59;100.00
24390;BME280;12510;56.468;-3.004;2022-08-02T06:48:22;99206.66;;;21.23;100.00
24390;BME280;12510;56.468;-3.004;2022-08-02T06:50:48;99209.75;;;21.32;100.00
24390;BME280;12510;56.468;-3.004;2022-08-02T06:53:15;99195.56;;;21.48;100.00
24390;BME280;12510;56.468;-3.004;2022-08-02T06:55:41;99197.47;;;21.65;100.00
24390;BME280;12510;56.468;-3.004;2022-08-02T06:58:07;99193.63;;;21.43;100.00
24390;BME280;12510;56.468;-3.004;2022-08-02T07:00:34;99201.81;;;21.88;100.00
24390;BME280;12510;56.468;-3.004;2022-08-02T07:03:00;99200.03;;;21.76;100.00
24390;BME280;12510;56.468;-3.004;2022-08-02T07:05:27;99204.41;;;22.00;100.00
24390;BME280;12510;56.468;-3.004;2022-08-02T07:07:55;99207.97;;;21.88;100.00
24390;BME280;12510;56.468;-3.004;2022-08-02T07:10:21;99197.44;;;22.21;100.00
24390;BME280;12510;56.468;-3.004;2022-08-02T07:12:47;99208.81;;;21.72;100.00
24390;BME280;12510;56.468;-3.004;2022-08-02T07:15:14;99204.78;;;22.08;100.00
24390;BME280;12510;56.468;-3.004;2022-08-02T07:17:41;99207.97;;;22.05;100.00
24390;BME280;12510;56.468;-3.004;2022-08-02T07:20:07;99217.63;;;22.06;100.00
24390;BME280;12510;56.468;-3.004;2022-08-02T07:22:34;99215.63;;;22.36;100.00
24390;BME280;12510;56.468;-3.004;2022-08-02T07:25:02;99211.66;;;22.21;100.00
24390;BME280;12510;56.468;-3.004;2022-08-02T07:27:28;99218.00;;;22.15;100.00
24390;BME280;12510;56.468;-3.004;2022-08-02T07:29:55;99219.03;;;22.31;100.00
24390;BME280;12510;56.468;-3.004;2022-08-02T07:32:24;99220.38;;;22.51;100.00
24390;BME280;12510;56.468;-3.004;2022-08-02T07:34:52;99219.66;;;21.99;100.00
24390;BME280;12510;56.468;-3.004;2022-08-02T07:37:27;99218.75;;;22.10;100.00
24390;BME280;12510;56.468;-3.004;2022-08-02T07:39:54;99218.19;;;22.48;100.00
24390;BME280;12510;56.468;-3.004;2022-08-02T07:42:21;99216.00;;;22.27;100.00
24390;BME280;12510;56.468;-3.004;2022-08-02T07:44:47;99213.16;;;22.12;100.00
24390;BME280;12510;56.468;-3.004;2022-08-02T07:47:14;99206.63;;;22.25;100.00
24390;BME280;12510;56.468;-3.004;2022-08-02T07:49:40;99221.38;;;22.27;100.00
24390;BME280;12510;56.468;-3.004;2022-08-02T07:52:07;99216.91;;;22.33;100.00
24390;BME280;12510;56.468;-3.004;2022-08-02T07:54:33;99231.28;;;22.44;100.00
24390;BME280;12510;56.468;-3.004;2022-08-02T07:57:00;99232.47;;;22.75;100.00
24390;BME280;12510;56.468;-3.004;2022-08-02T07:59:26;99228.84;;;22.87;100.00
24390;BME280;12510;56.468;-3.004;2022-08-02T08:01:53;99228.69;;;22.49;100.00
24390;BME280;12510;56.468;-3.004;2022-08-02T08:04:19;99239.09;;;22.46;100.00
24390;BME280;12510;56.468;-3.004;2022-08-02T08:06:45;99240.34;;;22.60;100.00
24390;BME280;12510;56.468;-3.004;2022-08-02T08:09:20;99232.66;;;22.69;100.00
24390;BME280;12510;56.468;-3.004;2022-08-02T08:11:46;99239.66;;;22.97;100.00
24390;BME280;12510;56.468;-3.004;2022-08-02T08:14:13;99240.53;;;23.25;100.00
24390;BME280;12510;56.468;-3.004;2022-08-02T08:16:39;99238.41;;;23.27;100.00
24390;BME280;12510;56.468;-3.004;2022-08-02T08:19:06;99230.41;;;23.32;100.00
24390;BME280;12510;56.468;-3.004;2022-08-02T08:21:32;99259.84;;;23.22;100.00
24390;BME280;12510;56.468;-3.004;2022-08-02T08:24:00;99249.44;;;22.59;100.00
24390;BME280;12510;56.468;-3.004;2022-08-02T08:26:26;99243.69;;;22.50;100.00
24390;BME280;12510;56.468;-3.004;2022-08-02T08:28:53;99253.78;;;22.04;100.00
24390;BME280;12510;56.468;-3.004;2022-08-02T08:31:19;99248.25;;;22.33;100.00
24390;BME280;12510;56.468;-3.004;2022-08-02T08:33:46;99248.50;;;22.92;100.00
24390;BME280;12510;56.468;-3.004;2022-08-02T08:36:12;99246.81;;;22.42;100.00
24390;BME280;12510;56.468;-3.004;2022-08-02T08:38:38;99243.19;;;22.75;100.00
24390;BME280;12510;56.468;-3.004;2022-08-02T08:41:05;99242.31;;;22.92;100.00
24390;BME280;12510;56.468;-3.004;2022-08-02T08:43:31;99245.03;;;23.19;100.00
24390;BME280;12510;56.468;-3.004;2022-08-02T08:45:57;99232.50;;;23.63;100.00
24390;BME280;12510;56.468;-3.004;2022-08-02T08:48:24;99242.41;;;23.57;100.00
24390;BME280;12510;56.468;-3.004;2022-08-02T08:50:55;99238.78;;;23.41;100.00
24390;BME280;12510;56.468;-3.004;2022-08-02T08:53:23;99246.22;;;23.61;100.00
24390;BME280;12510;56.468;-3.004;2022-08-02T08:55:52;99244.78;;;24.23;100.00
24390;BME280;12510;56.468;-3.004;2022-08-02T08:58:19;99246.16;;;23.01;100.00
24390;BME280;12510;56.468;-3.004;2022-08-02T09:00:45;99243.69;;;23.49;100.00
24390;BME280;12510;56.468;-3.004;2022-08-02T09:03:12;99246.84;;;23.73;100.00
24390;BME280;12510;56.468;-3.004;2022-08-02T09:05:39;99239.50;;;23.31;100.00
24390;BME280;12510;56.468;-3.004;2022-08-02T09:08:07;99239.59;;;23.41;100.00
24390;BME280;12510;56.468;-3.004;2022-08-02T09:10:44;99246.63;;;24.13;100.00
24390;BME280;12510;56.468;-3.004;2022-08-02T09:13:25;99228.69;;;24.34;100.00
24390;BME280;12510;56.468;-3.004;2022-08-02T09:18:33;99234.22;;;23.41;100.00
24390;BME280;12510;56.468;-3.004;2022-08-02T09:21:06;99234.44;;;24.00;100.00
24390;BME280;12510;56.468;-3.004;2022-08-02T09:23:36;99230.38;;;25.34;100.00
24390;BME280;12510;56.468;-3.004;2022-08-02T09:26:05;99234.16;;;25.64;100.00
24390;BME280;12510;56.468;-3.004;2022-08-02T09:28:34;99224.94;;;25.19;100.00
24390;BME280;12510;56.468;-3.004;2022-08-02T09:31:13;99226.50;;;24.94;100.00
24390;BME280;12510;56.468;-3.004;2022-08-02T09:33:42;99224.97;;;25.29;100.00
24390;BME280;12510;56.468;-3.004;2022-08-02T09:36:13;99229.88;;;24.58;100.00
24390;BME280;12510;56.468;-3.004;2022-08-02T09:38:56;99238.44;;;25.70;100.00
24390;BME280;12510;56.468;-3.004;2022-08-02T09:41:28;99230.19;;;24.67;100.00
24390;BME280;12510;56.468;-3.004;2022-08-02T09:43:56;99241.72;;;24.57;100.00
24390;BME280;12510;56.468;-3.004;2022-08-02T09:46:28;99251.53;;;24.31;100.00
24390;BME280;12510;56.468;-3.004;2022-08-02T09:49:04;99239.53;;;25.54;100.00
24390;BME280;12510;56.468;-3.004;2022-08-02T09:51:37;99253.19;;;26.40;100.00
24390;BME280;12510;56.468;-3.004;2022-08-02T09:54:07;99252.00;;;26.62;100.00
24390;BME280;12510;56.468;-3.004;2022-08-02T09:56:48;99262.25;;;26.75;100.00
24390;BME280;12510;56.468;-3.004;2022-08-02T09:59:16;99262.97;;;26.15;100.00
24390;BME280;12510;56.468;-3.004;2022-08-02T10:01:45;99261.34;;;26.09;100.00
24390;BME280;12510;56.468;-3.004;2022-08-02T10:04:13;99258.38;;;26.21;100.00
24390;BME280;12510;56.468;-3.004;2022-08-02T10:06:42;99264.06;;;25.52;100.00
24390;BME280;12510;56.468;-3.004;2022-08-02T10:09:11;99259.44;;;26.30;100.00
24390;BME280;12510;56.468;-3.004;2022-08-02T10:11:38;99267.31;;;26.11;100.00
24390;BME280;12510;56.468;-3.004;2022-08-02T10:14:06;99274.97;;;24.84;100.00
24390;BME280;12510;56.468;-3.004;2022-08-02T10:16:34;99285.00;;;25.09;100.00
24390;BME280;12510;56.468;-3.004;2022-08-02T10:19:01;99269.13;;;25.18;100.00
24390;BME280;12510;56.468;-3.004;2022-08-02T10:21:43;99265.72;;;24.64;100.00
24390;BME280;12510;56.468;-3.004;2022-08-02T10:24:37;99279.59;;;25.04;100.00
24390;BME280;12510;56.468;-3.004;2022-08-02T10:27:06;99278.00;;;25.23;100.00
24390;BME280;12510;56.468;-3.004;2022-08-02T10:29:39;99279.56;;;24.93;100.00
24390;BME280;12510;56.468;-3.004;2022-08-02T10:32:10;99283.47;;;25.90;100.00
24390;BME280;12510;56.468;-3.004;2022-08-02T10:34:59;99282.63;;;25.38;100.00
24390;BME280;12510;56.468;-3.004;2022-08-02T10:37:32;99275.53;;;24.96;100.00
24390;BME280;12510;56.468;-3.004;2022-08-02T10:40:02;99287.50;;;25.57;100.00
24390;BME280;12510;56.468;-3.004;2022-08-02T10:45:12;99290.88;;;26.76;100.00
24390;BME280;12510;56.468;-3.004;2022-08-02T10:53:28;99286.72;;;25.67;100.00
24390;BME280;12510;56.468;-3.004;2022-08-02T10:55:58;99275.66;;;26.09;100.00
24390;BME280;12510;56.468;-3.004;2022-08-02T10:58:26;99270.72;;;26.48;100.00
24390;BME280;12510;56.468;-3.004;2022-08-02T11:01:02;99272.47;;;27.33;100.00
24390;BME280;12510;56.468;-3.004;2022-08-02T11:03:38;99267.31;;;26.87;100.00
24390;BME280;12510;56.468;-3.004;2022-08-02T11:08:31;99267.56;;;25.84;100.00
24390;BME280;12510;56.468;-3.004;2022-08-02T11:11:19;99262.13;;;26.20;100.00
24390;BME280;12510;56.468;-3.004;2022-08-02T11:14:02;99260.06;;;26.82;100.00
24390;BME280;12510;56.468;-3.004;2022-08-02T11:19:24;99268.81;;;27.88;100.00
24390;BME280;12510;56.468;-3.004;2022-08-02T11:22:04;99267.97;;;26.63;100.00
24390;BME280;12510;56.468;-3.004;2022-08-02T11:24:34;99269.84;;;26.73;100.00
24390;BME280;12510;56.468;-3.004;2022-08-02T11:27:03;99275.00;;;26.54;100.00
24390;BME280;12510;56.468;-3.004;2022-08-02T11:29:38;99262.91;;;26.36;100.00
24390;BME280;12510;56.468;-3.004;2022-08-02T11:32:23;99282.94;;;25.93;100.00
24390;BME280;12510;56.468;-3.004;2022-08-02T11:34:52;99268.31;;;26.31;100.00
24390;BME280;12510;56.468;-3.004;2022-08-02T11:37:29;99264.69;;;26.76;100.00
24390;BME280;12510;56.468;-3.004;2022-08-02T11:39:57;99261.63;;;26.23;100.00
24390;BME280;12510;56.468;-3.004;2022-08-02T11:42:34;99270.81;;;25.81;100.00
24390;BME280;12510;56.468;-3.004;2022-08-02T11:45:02;99266.69;;;25.16;100.00
24390;BME280;12510;56.468;-3.004;2022-08-02T11:47:29;99260.00;;;25.29;100.00
24390;BME280;12510;56.468;-3.004;2022-08-02T11:50:08;99267.56;;;25.79;100.00
24390;BME280;12510;56.468;-3.004;2022-08-02T11:52:35;99257.03;;;26.18;100.00
24390;BME280;12510;56.468;-3.004;2022-08-02T11:55:03;99258.91;;;26.02;100.00
24390;BME280;12510;56.468;-3.004;2022-08-02T11:57:30;99255.09;;;25.21;100.00
24390;BME280;12510;56.468;-3.004;2022-08-02T11:59:56;99251.94;;;25.50;100.00
24390;BME280;12510;56.468;-3.004;2022-08-02T12:02:27;99254.38;;;25.67;100.00
24390;BME280;12510;56.468;-3.004;2022-08-02T12:04:57;99252.47;;;25.52;100.00
24390;BME280;12510;56.468;-3.004;2022-08-02T12:07:28;99264.88;;;25.94;100.00
24390;BME280;12510;56.468;-3.004;2022-08-02T12:09:59;99265.69;;;25.38;100.00
24390;BME280;12510;56.468;-3.004;2022-08-02T12:12:26;99261.63;;;25.61;100.00
24390;BME280;12510;56.468;-3.004;2022-08-02T12:14:52;99257.59;;;25.69;100.00
24390;BME280;12510;56.468;-3.004;2022-08-02T12:17:25;99268.13;;;25.86;100.00
24390;BME280;12510;56.468;-3.004;2022-08-02T12:20:11;99261.91;;;25.80;100.00
24390;BME280;12510;56.468;-3.004;2022-08-02T12:22:38;99266.47;;;26.10;100.00
24390;BME280;12510;56.468;-3.004;2022-08-02T12:25:19;99258.28;;;26.52;100.00
24390;BME280;12510;56.468;-3.004;2022-08-02T12:27:49;99258.06;;;26.38;100.00
24390;BME280;12510;56.468;-3.004;2022-08-02T12:30:17;99254.72;;;26.62;100.00
24390;BME280;12510;56.468;-3.004;2022-08-02T12:32:44;99250.13;;;26.62;100.00
24390;BME280;12510;56.468;-3.004;2022-08-02T12:35:16;99262.97;;;26.05;100.00
24390;BME280;12510;56.468;-3.004;2022-08-02T12:37:46;99259.97;;;26.01;100.00
24390;BME280;12510;56.468;-3.004;2022-08-02T12:40:30;99265.31;;;26.42;100.00
24390;BME280;12510;56.468;-3.004;2022-08-02T12:43:02;99251.91;;;26.12;100.00
24390;BME280;12510;56.468;-3.004;2022-08-02T12:45:31;99251.34;;;26.15;100.00
24390;BME280;12510;56.468;-3.004;2022-08-02T12:47:59;99251.66;;;26.89;100.00
24390;BME280;12510;56.468;-3.004;2022-08-02T12:50:32;99244.97;;;26.76;100.00
24390;BME280;12510;56.468;-3.004;2022-08-02T12:53:13;99247.16;;;27.19;100.00
24390;BME280;12510;56.468;-3.004;2022-08-02T12:56:06;99250.28;;;26.21;100.00
24390;BME280;12510;56.468;-3.004;2022-08-02T12:58:47;99245.38;;;26.99;100.00
24390;BME280;12510;56.468;-3.004;2022-08-02T13:01:22;99265.59;;;27.12;100.00
24390;BME280;12510;56.468;-3.004;2022-08-02T13:03:51;99259.09;;;27.13;100.00
24390;BME280;12510;56.468;-3.004;2022-08-02T13:06:18;99254.09;;;26.04;100.00
24390;BME280;12510;56.468;-3.004;2022-08-02T13:08:45;99261.06;;;26.21;100.00
24390;BME280;12510;56.468;-3.004;2022-08-02T13:11:12;99267.53;;;26.30;100.00
24390;BME280;12510;56.468;-3.004;2022-08-02T13:13:39;99271.59;;;26.22;100.00
24390;BME280;12510;56.468;-3.004;2022-08-02T13:16:06;99275.34;;;26.32;100.00
24390;BME280;12510;56.468;-3.004;2022-08-02T13:18:33;99272.97;;;26.09;100.00
24390;BME280;12510;56.468;-3.004;2022-08-02T13:21:00;99272.25;;;26.74;100.00